Time;durP1;ratioP1;P1;durP2;ratioP2;P2;SDS_P1;SDS_P2;PMS_P1;PMS_P2;Temp;Humidity;BMP_temperature;BMP_pressure;BME280_temperature;BME280_humidity;BME280_pressure;Samples;Min_cycle;Max_cycle;Signal;HPM_P1;HPM_P2
2023/01/10 07:35:35;;;;;;;2.40;1.47;;;4.50;99.90;4.50;101429.00;;;;5066775;28;20681;-70
2023/01/10 07:38:06;;;;;;;6.07;0.77;;;4.40;99.90;4.40;101438.00;;;;5057351;28;20636;-71
2023/01/10 07:40:32;;;;;;;0.50;0.50;;;4.40;99.90;4.70;101435.00;;;;5058165;28;20201;-70
2023/01/10 07:43:02;;;;;;;0.50;0.50;;;4.50;99.90;4.70;101411.00;;;;5075641;28;20267;-71
2023/01/10 07:45:29;;;;;;;4.70;3.80;;;4.50;99.90;4.60;101424.00;;;;5072567;28;20206;-71
2023/01/10 07:48:01;;;;;;;0.30;0.30;;;4.50;99.90;5.10;101430.00;;;;5070552;28;20222;-71
2023/01/10 07:50:31;;;;;;;1.67;0.90;;;4.60;99.90;4.70;101428.00;;;;5057396;28;20672;-70
2023/01/10 07:52:59;;;;;;;2.20;1.40;;;4.60;99.90;4.70;101425.00;;;;5068862;28;20569;-70
2023/01/10 07:55:29;;;;;;;0.40;0.40;;;4.60;99.90;4.60;101433.00;;;;5069849;28;20220;-70
2023/01/10 07:57:56;;;;;;;2.97;1.20;;;4.50;99.90;5.10;101430.00;;;;5057530;28;20280;-70
2023/01/10 08:00:22;;;;;;;4.63;1.43;;;4.70;99.90;4.60;101432.00;;;;5057392;28;20197;-70
2023/01/10 08:02:55;;;;;;;0.83;0.60;;;4.60;99.90;4.50;101436.00;;;;5068698;28;20216;-70
2023/01/10 08:05:25;;;;;;;1.00;0.60;;;4.50;99.90;4.90;101424.00;;;;5049957;28;20214;-71
2023/01/10 08:07:55;;;;;;;2.03;1.13;;;4.60;99.90;4.60;101433.00;;;;5057260;28;20205;-71
2023/01/10 08:10:25;;;;;;;0.40;0.40;;;4.60;99.90;4.90;101412.00;;;;5057471;28;20216;-70
2023/01/10 08:13:03;;;;;;;0.70;0.70;;;4.70;99.90;4.90;101419.00;;;;5057042;28;20650;-70
2023/01/10 08:15:31;;;;;;;0.40;0.40;;;4.80;99.90;4.90;101432.00;;;;5054940;28;20641;-69
2023/01/10 08:18:01;;;;;;;0.60;0.60;;;4.70;99.90;4.80;101439.00;;;;5056931;28;20202;-69
2023/01/10 08:20:28;;;;;;;1.17;1.17;;;4.80;99.90;5.20;101440.00;;;;5057258;28;20206;-69
2023/01/10 08:22:57;;;;;;;0.97;0.77;;;4.80;99.90;4.80;101444.00;;;;5056891;28;20201;-69
2023/01/10 08:25:24;;;;;;;0.40;0.40;;;4.80;99.90;4.80;101446.00;;;;5057421;28;20285;-69
2023/01/10 08:27:50;;;;;;;0.80;0.53;;;4.80;99.90;5.00;101444.00;;;;5050627;28;20248;-69
2023/01/10 08:30:19;;;;;;;0.40;0.40;;;4.90;99.90;5.30;101442.00;;;;5057015;28;20696;-69
2023/01/10 08:32:48;;;;;;;0.43;0.43;;;5.00;99.90;5.20;101430.00;;;;5057053;28;20760;-69
2023/01/10 08:35:14;;;;;;;12.60;1.67;;;5.00;99.90;5.20;101426.00;;;;5068814;28;20217;-69
2023/01/10 08:37:49;;;;;;;0.30;0.30;;;5.10;99.90;5.70;101422.00;;;;5056647;28;20204;-69
2023/01/10 08:40:15;;;;;;;0.80;0.80;;;5.20;99.90;5.50;101422.00;;;;5071198;28;20216;-70
2023/01/10 08:42:56;;;;;;;0.70;0.70;;;5.30;99.90;5.30;101420.00;;;;5055490;28;20223;-70
2023/01/10 08:45:24;;;;;;;1.03;0.50;;;5.20;99.90;5.70;101424.00;;;;5055815;28;20342;-70
2023/01/10 08:47:50;;;;;;;0.50;0.50;;;5.30;99.90;5.90;101433.00;;;;5073042;28;20212;-69
2023/01/10 08:50:16;;;;;;;1.80;1.10;;;5.40;99.90;5.90;101430.00;;;;5056799;28;20207;-69
2023/01/10 08:52:42;;;;;;;5.53;5.03;;;5.40;99.90;5.70;101420.00;;;;5073130;28;20572;-69
2023/01/10 08:55:08;;;;;;;0.40;0.40;;;5.40;99.90;5.40;101425.00;;;;5071279;28;20674;-68
2023/01/10 08:57:59;;;;;;;0.40;0.40;;;5.30;99.90;5.40;101427.00;;;;5056307;28;20547;-69
2023/01/10 09:00:35;;;;;;;0.40;0.40;;;5.30;99.90;6.00;101429.00;;;;5054987;28;20235;-69
2023/01/10 09:03:13;;;;;;;2.77;1.03;;;5.50;99.90;5.60;101408.00;;;;5056416;28;20336;-69
2023/01/10 09:05:44;;;;;;;0.30;0.30;;;5.50;99.90;5.60;101364.00;;;;5058436;28;20680;-68
2023/01/10 09:08:16;;;;;;;0.30;0.30;;;5.50;99.90;5.80;101434.00;;;;5047436;28;20295;-69
2023/01/10 09:10:45;;;;;;;0.30;0.30;;;5.50;99.90;6.00;101419.00;;;;5073714;28;20208;-67
2023/01/10 09:13:39;;;;;;;0.40;0.40;;;5.60;99.90;6.20;101421.00;;;;5072851;28;20691;-69
2023/01/10 09:16:22;;;;;;;0.30;0.30;;;5.70;99.90;6.10;101394.00;;;;5071942;28;20201;-69
2023/01/10 09:18:51;;;;;;;0.50;0.50;;;5.70;99.90;6.10;101398.00;;;;5069444;28;20218;-69
2023/01/10 09:21:35;;;;;;;8.03;3.60;;;5.80;99.90;6.30;101369.00;;;;5073838;28;20204;-69
2023/01/10 09:24:24;;;;;;;0.40;0.40;;;5.90;99.90;6.30;101391.00;;;;5071917;28;20197;-70
2023/01/10 09:27:10;;;;;;;2.77;0.70;;;5.90;99.90;6.50;101328.00;;;;5057990;28;20205;-70
2023/01/10 09:29:39;;;;;;;4.70;3.80;;;6.00;99.90;6.10;101391.00;;;;5047923;28;20198;-68
2023/01/10 09:32:28;;;;;;;0.80;0.80;;;6.00;99.90;6.20;101380.00;;;;5055870;28;20226;-69
2023/01/10 09:35:19;;;;;;;0.77;0.77;;;6.00;99.90;6.40;101390.00;;;;5071582;28;20199;-69
2023/01/10 09:38:09;;;;;;;0.40;0.40;;;6.00;99.90;6.70;101388.00;;;;5055726;28;20211;-69
2023/01/10 09:41:05;;;;;;;1.90;0.77;;;6.10;99.90;6.70;101390.00;;;;5060448;28;20679;-69
2023/01/10 09:44:09;;;;;;;0.30;0.30;;;6.20;99.90;6.60;101392.00;;;;5064362;28;20258;-69
2023/01/10 09:47:13;;;;;;;0.53;0.50;;;6.30;99.90;6.80;101385.00;;;;5055870;28;20209;-69
2023/01/10 09:50:09;;;;;;;3.30;0.97;;;6.30;99.90;6.40;101380.00;;;;5062402;28;20725;-69
2023/01/10 09:53:14;;;;;;;5.27;1.07;;;6.20;99.90;6.40;101378.00;;;;5073079;28;20448;-69
2023/01/10 09:56:17;;;;;;;0.93;0.93;;;6.20;99.90;6.60;101364.00;;;;5055102;28;20288;-69
2023/01/10 09:58:44;;;;;;;0.60;0.60;;;6.20;99.90;6.70;101379.00;;;;5067379;28;20208;-69
2023/01/10 10:01:22;;;;;;;0.70;0.70;;;6.30;99.90;6.60;101394.00;;;;5052980;28;20602;-69
2023/01/10 10:04:22;;;;;;;0.30;0.30;;;6.40;99.90;6.40;101382.00;;;;5054583;28;20556;-70
2023/01/10 10:07:16;;;;;;;0.77;0.77;;;6.30;99.90;6.60;101379.00;;;;5061173;28;20214;-69
2023/01/10 10:09:45;;;;;;;1.07;0.87;;;6.40;99.90;7.00;101363.00;;;;5070446;28;20226;-70
2023/01/10 10:12:32;;;;;;;4.67;0.97;;;6.50;99.90;6.80;101379.00;;;;5052708;28;20220;-70
2023/01/10 10:16:05;;;;;;;0.37;0.37;;;6.50;99.90;7.00;101369.00;;;;5056527;28;20719;-70
2023/01/10 10:18:49;;;;;;;2.50;0.57;;;6.60;99.90;7.50;101365.00;;;;5029634;28;20211;-70
2023/01/10 10:33:35;;;;;;;3.00;1.30;;;6.30;99.90;6.70;101333.00;;;;5070217;28;20556;-69
2023/01/10 10:36:20;;;;;;;0.93;0.93;;;6.50;99.90;6.90;101325.00;;;;5050059;28;20232;-69
2023/01/10 10:39:16;;;;;;;1.30;0.97;;;6.60;99.90;6.90;101304.00;;;;5043419;28;20179;-69
2023/01/10 10:42:18;;;;;;;0.53;0.53;;;6.70;99.90;7.10;101306.00;;;;5060662;28;20663;-69
2023/01/10 10:45:32;;;;;;;5.00;0.83;;;6.80;99.90;7.00;101302.00;;;;5040239;28;20313;-69
2023/01/10 10:48:29;;;;;;;1.27;0.70;;;6.70;99.90;7.20;101295.00;;;;5045754;28;20183;-71
2023/01/10 10:51:27;;;;;;;0.97;0.40;;;6.90;99.90;7.00;101284.00;;;;5044381;28;20184;-67
2023/01/10 10:53:57;;;;;;;1.63;1.00;;;6.90;99.90;6.90;101288.00;;;;5037880;28;20256;-69
2023/01/10 10:56:29;;;;;;;0.30;0.30;;;6.80;99.90;7.20;101289.00;;;;5048413;28;20657;-68
2023/01/10 10:58:58;;;;;;;0.40;0.33;;;6.80;99.90;7.10;101274.00;;;;5048497;28;20187;-68
2023/01/10 11:01:25;;;;;;;1.27;0.70;;;6.80;99.90;7.20;101280.00;;;;5033498;28;20203;-68
2023/01/10 11:04:08;;;;;;;0.30;0.30;;;6.90;99.90;7.40;101286.00;;;;5047250;28;20225;-68
2023/01/10 11:06:37;;;;;;;1.00;1.00;;;7.00;99.90;7.80;101269.00;;;;5048220;28;20180;-68
2023/01/10 11:09:13;;;;;;;1.90;1.13;;;7.10;99.90;7.60;101270.00;;;;5048415;28;20270;-68
2023/01/10 11:11:45;;;;;;;0.43;0.40;;;7.20;99.90;7.80;101270.00;;;;5028119;28;20214;-68
2023/01/10 11:14:12;;;;;;;0.50;0.50;;;7.20;99.90;8.10;101278.00;;;;5048384;28;20220;-67
2023/01/10 11:16:43;;;;;;;1.00;1.00;;;7.40;99.90;7.30;101263.00;;;;5048092;28;20662;-68
2023/01/10 11:19:12;;;;;;;3.73;1.43;;;7.20;99.90;7.30;101279.00;;;;5035207;28;20195;-68
2023/01/10 11:21:40;;;;;;;0.80;0.80;;;7.20;99.90;7.50;101274.00;;;;5047705;28;20277;-68
2023/01/10 11:24:32;;;;;;;3.67;1.90;;;7.20;99.90;7.50;101272.00;;;;5033484;28;20273;-68
2023/01/10 11:27:17;;;;;;;0.70;0.70;;;7.20;99.90;7.50;101274.00;;;;5043327;28;20238;-68
2023/01/10 11:29:49;;;;;;;0.53;0.53;;;7.30;99.90;7.40;101275.00;;;;5048023;28;20179;-67
2023/01/10 11:32:47;;;;;;;2.37;1.00;;;7.20;99.90;7.50;101268.00;;;;5046382;28;20254;-70
2023/01/10 11:35:35;;;;;;;1.27;1.20;;;7.30;99.90;7.40;101263.00;;;;5030431;28;20188;-69
2023/01/10 11:38:40;;;;;;;2.23;1.23;;;7.30;99.90;7.40;101258.00;;;;5049150;28;20171;-70
2023/01/10 11:41:32;;;;;;;0.30;0.30;;;7.30;99.90;7.60;101251.00;;;;5047702;28;20272;-70
2023/01/10 11:44:27;;;;;;;0.60;0.60;;;7.30;99.90;7.70;101246.00;;;;5029882;28;20217;-70
2023/01/10 11:47:19;;;;;;;0.30;0.30;;;7.40;99.90;7.70;101237.00;;;;5032244;28;20180;-70
2023/01/10 11:49:47;;;;;;;0.57;0.57;;;7.40;99.90;8.00;101240.00;;;;5034487;28;20805;-70
2023/01/10 11:52:27;;;;;;;1.33;1.23;;;7.50;99.90;7.60;101213.00;;;;5034415;28;20253;-70
2023/01/10 11:55:09;;;;;;;1.93;0.80;;;7.40;99.90;7.40;101198.00;;;;5028991;28;20196;-69
2023/01/10 11:57:37;;;;;;;0.50;0.50;;;7.40;99.90;7.70;101213.00;;;;5020220;28;20211;-70
2023/01/10 12:00:11;;;;;;;0.33;0.33;;;7.50;99.90;7.70;101216.00;;;;5034409;28;20176;-69
2023/01/10 12:02:42;;;;;;;5.70;3.60;;;7.40;99.90;7.60;101211.00;;;;5033168;28;20196;-70
2023/01/10 12:05:19;;;;;;;6.33;2.07;;;7.50;99.90;7.60;101214.00;;;;5050559;28;20737;-70
2023/01/10 12:08:05;;;;;;;3.30;1.33;;;7.50;99.90;7.60;101218.00;;;;5028199;28;20185;-70
2023/01/10 12:10:32;;;;;;;6.83;1.70;;;7.50;99.90;7.90;101211.00;;;;5035173;28;20183;-70
2023/01/10 12:13:14;;;;;;;0.30;0.30;;;7.60;99.90;7.90;101218.00;;;;5058268;28;20215;-70
2023/01/10 12:15:45;;;;;;;11.53;1.37;;;7.60;99.90;7.50;101162.00;;;;5010336;28;20219;-69
2023/01/10 12:18:11;;;;;;;0.70;0.70;;;7.60;99.90;7.90;101143.00;;;;5033879;28;20339;-69
2023/01/10 12:20:54;;;;;;;0.40;0.40;;;7.60;99.90;7.60;101142.00;;;;5034715;28;20643;-69
2023/01/10 12:23:29;;;;;;;3.13;1.10;;;7.60;99.90;7.90;101143.00;;;;5026960;28;20596;-70
2023/01/10 12:25:58;;;;;;;0.70;0.70;;;7.60;99.90;7.90;101197.00;;;;5033851;28;20209;-70
2023/01/10 12:28:29;;;;;;;2.43;0.50;;;7.60;99.90;7.90;101138.00;;;;5048218;28;20187;-70
2023/01/10 12:30:58;;;;;;;0.43;0.30;;;7.60;99.90;8.00;101183.00;;;;5023895;28;20662;-70
2023/01/10 12:33:38;;;;;;;0.53;0.53;;;7.50;99.90;7.90;101172.00;;;;5006524;28;20556;-70
2023/01/10 12:36:35;;;;;;;2.10;1.17;;;7.50;99.90;7.80;101178.00;;;;5011368;28;20199;-70
2023/01/10 12:39:21;;;;;;;3.50;1.00;;;7.50;99.90;7.50;101177.00;;;;5027970;28;20738;-70
2023/01/10 12:44:52;;;;;;;0.97;0.63;;;7.30;99.90;7.70;101123.00;;;;5025938;28;20232;-72
2023/01/10 12:47:45;;;;;;;5.30;1.80;;;7.30;99.90;7.80;101144.00;;;;5033227;28;20187;-69
2023/01/10 12:50:32;;;;;;;0.37;0.37;;;7.50;99.90;8.30;101144.00;;;;5034226;28;20605;-70
2023/01/10 12:53:15;;;;;;;1.10;0.57;;;7.50;99.90;7.50;101131.00;;;;5066491;28;20630;-70
2023/01/10 12:56:06;;;;;;;2.43;1.87;;;7.40;99.90;7.70;101125.00;;;;5038670;28;20630;-70
2023/01/10 12:59:02;;;;;;;1.97;1.87;;;7.40;99.90;7.70;101075.00;;;;5023131;28;20191;-70
2023/01/10 13:02:14;;;;;;;0.30;0.30;;;7.40;99.90;7.60;101117.00;;;;5029905;28;20230;-70
2023/01/10 13:05:10;;;;;;;4.10;3.90;;;7.30;99.90;7.70;101093.00;;;;5032702;28;20211;-70
2023/01/10 13:08:08;;;;;;;2.63;1.53;;;7.30;99.90;7.60;101110.00;;;;5032026;28;20179;-70
2023/01/10 13:11:15;;;;;;;0.57;0.57;;;7.40;99.90;7.60;101088.00;;;;5032166;28;20716;-70
2023/01/10 13:14:35;;;;;;;2.40;1.20;;;7.40;99.90;7.40;101082.00;;;;5023570;28;20186;-70
2023/01/10 13:17:30;;;;;;;0.60;0.60;;;7.40;99.90;7.60;101082.00;;;;5037320;28;20200;-70
2023/01/10 13:20:20;;;;;;;1.23;0.50;;;7.40;99.90;8.00;101067.00;;;;5023938;28;20274;-70
2023/01/10 13:23:29;;;;;;;0.40;0.40;;;7.50;99.90;8.00;101016.00;;;;5032274;28;20192;-70
2023/01/10 13:26:24;;;;;;;0.60;0.60;;;7.50;99.90;7.70;100987.00;;;;5072943;28;20211;-70
2023/01/10 13:28:58;;;;;;;2.53;1.40;;;7.50;99.90;7.60;101047.00;;;;5024697;28;20562;-71
2023/01/10 13:31:56;;;;;;;1.47;1.23;;;7.40;99.90;7.50;101056.00;;;;5049968;28;20219;-71
2023/01/10 13:34:26;;;;;;;2.43;2.03;;;7.40;99.90;7.40;101049.00;;;;5028639;28;20184;-72
2023/01/10 13:37:01;;;;;;;6.90;2.63;;;7.30;99.90;7.40;101045.00;;;;5028571;28;20709;-71
2023/01/10 13:39:40;;;;;;;0.30;0.30;;;7.30;99.90;7.70;101042.00;;;;5024099;28;20262;-71
2023/01/10 13:45:28;;;;;;;4.47;1.57;;;7.30;99.90;7.50;101014.00;;;;5035621;28;20202;-70
2023/01/10 13:47:54;;;;;;;0.50;0.50;;;7.30;99.90;7.50;101019.00;;;;5032068;28;20185;-72
2023/01/10 13:53:21;;;;;;;2.63;1.40;;;7.20;99.90;7.20;100985.00;;;;5029922;28;20700;-71
2023/01/10 13:55:54;;;;;;;1.63;1.50;;;7.10;99.90;7.30;100990.00;;;;5032602;28;20203;-70
2023/01/10 14:05:09;;;;;;;0.60;0.60;;;7.00;99.90;7.30;100975.00;;;;5044522;28;20194;-71
2023/01/10 14:08:14;;;;;;;1.53;0.97;;;7.10;99.90;7.40;100971.00;;;;5036477;28;20201;-71
2023/01/10 14:10:40;;;;;;;1.17;1.07;;;7.10;99.90;7.30;100950.00;;;;4978806;28;20257;-68
2023/01/10 14:13:35;;;;;;;1.40;1.30;;;7.00;99.90;7.20;100967.00;;;;4997127;28;20222;-69
2023/01/10 14:16:08;;;;;;;0.80;0.80;;;7.00;99.90;7.00;100954.00;;;;4984780;28;20195;-68
2023/01/10 14:18:59;;;;;;;1.97;1.10;;;7.00;99.90;7.20;100949.00;;;;4986316;28;20258;-68
2023/01/10 14:22:05;;;;;;;2.63;1.47;;;7.00;99.90;7.40;100959.00;;;;4990449;28;20201;-68
2023/01/10 14:25:02;;;;;;;1.47;1.37;;;7.00;99.90;7.20;100941.00;;;;4996503;28;20223;-68
2023/01/10 14:27:58;;;;;;;2.00;1.67;;;7.00;99.90;7.40;100946.00;;;;5056000;28;20205;-68
2023/01/10 14:30:50;;;;;;;1.60;1.50;;;7.00;99.90;7.00;100894.00;;;;5042604;28;20189;-69
2023/01/10 14:33:46;;;;;;;1.37;1.17;;;7.00;99.90;6.90;100934.00;;;;5023819;28;20238;-68
2023/01/10 14:37:08;;;;;;;1.70;1.60;;;7.00;99.90;7.30;100927.00;;;;5027234;28;20374;-68
2023/01/10 14:40:24;;;;;;;1.23;1.20;;;7.00;99.90;7.60;100926.00;;;;5031552;28;20209;-68
2023/01/10 14:43:46;;;;;;;2.90;1.40;;;7.00;99.90;7.30;100897.00;;;;5029244;28;20285;-68
2023/01/10 14:47:03;;;;;;;2.50;1.50;;;7.00;99.90;7.00;100821.00;;;;5029477;28;20179;-68
2023/01/10 14:50:35;;;;;;;0.70;0.70;;;7.00;99.90;7.30;100876.00;;;;5063628;28;20190;-68
2023/01/10 14:53:47;;;;;;;1.57;1.47;;;7.00;99.90;7.00;100878.00;;;;5020534;28;20717;-68
2023/01/10 14:57:52;;;;;;;1.20;1.20;;;7.00;99.90;6.90;100894.00;;;;5010564;28;20206;-68
2023/01/10 15:01:19;;;;;;;2.00;1.37;;;7.00;99.90;6.90;100886.00;;;;5031401;28;20206;-68
2023/01/10 15:04:27;;;;;;;0.80;0.80;;;7.00;99.90;7.20;100872.00;;;;5031829;28;20191;-68
2023/01/10 15:07:27;;;;;;;4.17;0.97;;;7.00;99.90;7.10;100872.00;;;;5061545;28;20176;-68
2023/01/10 15:09:57;;;;;;;1.50;1.00;;;7.00;99.90;7.20;100856.00;;;;5029222;28;20207;-68
2023/01/10 15:12:26;;;;;;;0.70;0.70;;;7.00;99.90;7.40;100863.00;;;;5064403;28;20280;-68
2023/01/10 15:15:14;;;;;;;3.50;1.55;;;7.00;99.90;7.20;100875.00;;;;5030466;28;20425;-68
2023/01/10 15:18:37;;;;;;;2.70;1.90;;;7.00;99.90;7.20;100869.00;;;;5031768;28;20182;-68
2023/01/10 15:21:04;;;;;;;0.80;0.80;;;7.00;99.90;7.40;100871.00;;;;5062505;28;20196;-68
2023/01/10 15:24:33;;;;;;;1.57;1.47;;;7.10;99.90;7.10;100864.00;;;;5019588;28;20590;-68
2023/01/10 15:27:07;;;;;;;2.73;2.30;;;7.00;99.90;7.30;100859.00;;;;5059114;28;20201;-69
2023/01/10 15:29:35;;;;;;;0.70;0.70;;;7.10;99.90;7.20;100843.00;;;;5034807;28;20179;-69
2023/01/10 15:32:30;;;;;;;0.70;0.70;;;7.10;99.90;7.40;100848.00;;;;5035667;28;20221;-68
2023/01/10 15:35:04;;;;;;;1.37;0.90;;;7.10;99.90;7.40;100851.00;;;;5034519;28;20192;-68
2023/01/10 15:37:57;;;;;;;0.83;0.83;;;7.10;99.90;7.20;100787.00;;;;5032003;28;20206;-68
2023/01/10 15:40:33;;;;;;;0.60;0.60;;;7.10;99.90;7.50;100856.00;;;;5025600;28;20222;-68
2023/01/10 15:43:25;;;;;;;0.70;0.70;;;7.10;99.90;7.70;100844.00;;;;5027836;28;20201;-68
2023/01/10 15:45:54;;;;;;;1.63;1.23;;;7.20;99.90;7.40;100822.00;;;;5033352;28;20193;-68
2023/01/10 15:48:32;;;;;;;0.50;0.50;;;7.20;99.90;7.60;100834.00;;;;5023935;28;20205;-68
2023/01/10 15:51:18;;;;;;;3.87;1.60;;;7.20;99.90;7.50;100780.00;;;;5034570;28;20254;-68
2023/01/10 15:54:17;;;;;;;1.47;1.37;;;7.20;99.90;7.70;100836.00;;;;5033830;28;20705;-69
2023/01/10 15:57:26;;;;;;;1.17;0.70;;;7.30;99.90;7.40;100817.00;;;;5034161;28;20190;-67
2023/01/10 15:59:53;;;;;;;0.53;0.53;;;7.30;99.90;7.70;100833.00;;;;5041066;28;20194;-68
2023/01/10 16:02:31;;;;;;;0.47;0.47;;;7.30;99.90;7.80;100767.00;;;;5029959;28;20286;-68
2023/01/10 16:05:12;;;;;;;0.90;0.90;;;7.40;99.90;7.80;100793.00;;;;5027196;28;20276;-68
2023/01/10 16:07:50;;;;;;;0.70;0.70;;;7.40;99.90;7.80;100816.00;;;;5030403;28;20191;-68
2023/01/10 16:10:26;;;;;;;0.77;0.77;;;7.50;99.90;7.70;100810.00;;;;5026295;28;20197;-68
2023/01/10 16:13:30;;;;;;;1.40;1.30;;;7.50;99.90;7.90;100827.00;;;;5030637;28;20298;-68
2023/01/10 16:15:59;;;;;;;0.80;0.80;;;7.50;99.90;7.40;100808.00;;;;5059592;28;20187;-68
2023/01/10 16:18:26;;;;;;;1.63;1.07;;;7.50;99.90;8.00;100803.00;;;;5033786;28;20265;-68
2023/01/10 16:20:56;;;;;;;0.60;0.60;;;7.60;99.90;7.80;100803.00;;;;5034343;28;20189;-68
2023/01/10 16:23:33;;;;;;;0.90;0.90;;;7.60;99.90;8.30;100797.00;;;;5033019;28;20565;-68
2023/01/10 16:26:04;;;;;;;0.70;0.70;;;7.70;99.90;8.30;100799.00;;;;5046754;28;20221;-66
2023/01/10 16:28:37;;;;;;;1.37;1.27;;;7.80;99.90;7.90;100806.00;;;;5066340;28;20186;-68
2023/01/10 16:32:10;;;;;;;0.70;0.70;;;7.70;99.90;8.00;100801.00;;;;5016736;28;20187;-68
2023/01/10 16:35:02;;;;;;;0.77;0.77;;;7.70;99.90;8.40;100759.00;;;;5027883;28;20532;-68
2023/01/10 16:38:11;;;;;;;0.80;0.80;;;7.80;99.90;8.20;100786.00;;;;5033045;28;20225;-68
2023/01/10 16:44:21;;;;;;;0.70;0.70;;;7.90;99.90;8.30;100791.00;;;;5028152;28;20198;-68
2023/01/10 16:47:28;;;;;;;2.83;2.73;;;7.90;99.90;8.10;100764.00;;;;5034287;28;20183;-68
2023/01/10 16:50:19;;;;;;;0.93;0.83;;;7.90;99.90;8.20;100765.00;;;;5030717;28;20197;-68
2023/01/10 16:53:20;;;;;;;1.43;1.13;;;7.90;99.90;8.30;100771.00;;;;5011126;28;20275;-68
2023/01/10 16:56:37;;;;;;;1.10;1.00;;;8.00;99.90;8.60;100768.00;;;;5033133;28;20655;-68
2023/01/10 16:59:33;;;;;;;0.90;0.90;;;8.00;99.90;8.30;100768.00;;;;5032053;28;20264;-68
2023/01/10 17:02:23;;;;;;;1.33;0.93;;;8.10;99.90;8.30;100758.00;;;;5007471;28;20208;-69
2023/01/10 17:05:18;;;;;;;1.37;1.27;;;8.00;99.90;8.30;100755.00;;;;5014876;28;20188;-68
2023/01/10 17:08:16;;;;;;;1.23;1.23;;;8.10;99.90;8.60;100759.00;;;;4993786;28;20203;-68
2023/01/10 17:11:29;;;;;;;1.53;1.43;;;8.10;99.90;8.20;100754.00;;;;5017264;28;20531;-68
2023/01/10 17:14:05;;;;;;;1.43;1.33;;;8.10;99.90;8.40;100751.00;;;;5022256;28;20175;-69
2023/01/10 17:17:14;;;;;;;1.03;1.03;;;8.10;99.90;8.50;100744.00;;;;5014147;28;20186;-68
2023/01/10 17:20:38;;;;;;;1.40;1.30;;;8.20;99.90;8.60;100752.00;;;;5015457;28;20191;-68
2023/01/10 17:23:23;;;;;;;1.03;1.03;;;8.30;99.90;8.30;100752.00;;;;5029488;28;20211;-68
2023/01/10 17:26:06;;;;;;;2.03;1.63;;;8.20;99.90;8.40;100697.00;;;;5063375;28;20630;-70
2023/01/10 17:28:32;;;;;;;0.70;0.70;;;8.20;99.90;8.50;100747.00;;;;5026710;28;20639;-70
2023/01/10 17:30:59;;;;;;;0.90;0.90;;;8.20;99.90;8.60;100744.00;;;;5018369;28;20468;-70
2023/01/10 17:33:26;;;;;;;1.10;1.10;;;8.30;99.90;8.70;100714.00;;;;5033658;28;20303;-69
2023/01/10 17:36:18;;;;;;;1.07;1.00;;;8.30;99.90;8.80;100729.00;;;;5034127;28;20218;-69
2023/01/10 17:38:44;;;;;;;0.83;0.83;;;8.30;99.90;8.50;100724.00;;;;5024539;28;20667;-69
2023/01/10 17:41:11;;;;;;;0.60;0.60;;;8.30;99.90;8.80;100722.00;;;;5027046;28;20266;-69
2023/01/10 17:43:38;;;;;;;1.10;1.10;;;8.40;99.90;8.60;100707.00;;;;5033150;28;20191;-69
2023/01/10 17:46:09;;;;;;;1.07;1.07;;;8.40;99.90;9.00;100669.00;;;;5032685;28;20183;-69
2023/01/10 17:48:35;;;;;;;1.73;1.63;;;8.40;99.90;8.80;100708.00;;;;5018666;28;20671;-69
2023/01/10 17:51:03;;;;;;;1.63;1.53;;;8.40;99.90;8.70;100707.00;;;;5010411;28;20186;-69
2023/01/10 17:53:29;;;;;;;0.77;0.77;;;8.40;99.90;8.80;100691.00;;;;5012141;28;20287;-69
2023/01/10 17:55:57;;;;;;;0.90;0.90;;;8.50;99.90;8.90;100700.00;;;;5030945;28;20745;-69
2023/01/10 17:58:25;;;;;;;0.60;0.60;;;8.50;99.90;9.30;100646.00;;;;5045321;28;20188;-69
2023/01/10 18:00:51;;;;;;;0.67;0.67;;;8.60;99.90;9.00;100682.00;;;;5029409;28;20185;-68
2023/01/10 18:03:17;;;;;;;2.20;2.03;;;8.60;99.90;8.90;100666.00;;;;5048686;28;20235;-69
2023/01/10 18:06:07;;;;;;;0.63;0.63;;;8.60;99.90;8.90;100696.00;;;;5032462;28;20593;-68
2023/01/10 18:08:45;;;;;;;1.30;1.20;;;8.60;99.90;9.10;100677.00;;;;5026393;28;20184;-69
2023/01/10 18:11:42;;;;;;;1.77;1.67;;;8.70;99.90;9.40;100660.00;;;;5032022;28;20303;-69
2023/01/10 18:17:20;;;;;;;2.40;1.57;;;8.80;99.90;9.10;100679.00;;;;5018439;28;20232;-69
2023/01/10 18:19:46;;;;;;;0.90;0.90;;;8.80;99.90;9.30;100644.00;;;;5027921;28;20181;-69
2023/01/10 18:24:57;;;;;;;1.60;1.50;;;8.90;99.90;9.50;100679.00;;;;5031839;28;20196;-69
2023/01/10 18:27:51;;;;;;;0.80;0.80;;;9.00;99.90;9.70;100680.00;;;;5031416;28;20264;-69
2023/01/10 18:30:50;;;;;;;1.60;1.50;;;9.10;99.90;9.60;100617.00;;;;5048671;28;20710;-69
2023/01/10 18:33:31;;;;;;;1.30;1.20;;;9.10;99.90;9.50;100656.00;;;;5042865;28;20220;-69
2023/01/10 18:36:13;;;;;;;2.20;2.00;;;9.20;99.90;9.70;100657.00;;;;5031590;28;20227;-68
2023/01/10 18:38:39;;;;;;;1.27;1.17;;;9.20;99.90;10.00;100651.00;;;;5018143;28;20193;-69
2023/01/10 18:41:05;;;;;;;2.53;2.03;;;9.30;99.90;10.10;100644.00;;;;5064737;28;20195;-68
2023/01/10 18:43:42;;;;;;;2.47;2.27;;;9.40;99.90;9.40;100647.00;;;;5042527;28;20194;-68
2023/01/10 18:46:20;;;;;;;0.70;0.70;;;9.30;99.90;9.90;100655.00;;;;5039432;28;20189;-69
2023/01/10 18:48:49;;;;;;;1.47;1.37;;;9.30;99.90;9.80;100655.00;;;;5047385;28;20214;-69
2023/01/10 18:51:17;;;;;;;0.93;0.93;;;9.40;99.90;10.00;100650.00;;;;5031870;28;20183;-69
2023/01/10 18:53:47;;;;;;;0.77;0.77;;;9.50;99.90;9.80;100594.00;;;;5034160;28;20192;-68
2023/01/10 18:56:16;;;;;;;0.90;0.90;;;9.50;99.90;10.00;100640.00;;;;5035233;28;20171;-69
2023/01/10 18:58:42;;;;;;;1.83;1.67;;;9.50;99.90;10.10;100624.00;;;;5035611;28;20195;-69
2023/01/10 19:01:17;;;;;;;1.20;1.10;;;9.60;99.90;10.00;100638.00;;;;5035701;28;20224;-68
2023/01/10 19:03:43;;;;;;;0.83;0.83;;;9.60;99.90;10.40;100619.00;;;;5035266;28;20277;-69
2023/01/10 19:06:15;;;;;;;1.00;0.97;;;9.70;99.90;10.10;100619.00;;;;5015814;28;20187;-69
2023/01/10 19:09:00;;;;;;;1.47;1.40;;;9.70;99.90;10.30;100638.00;;;;5066756;28;20186;-69
2023/01/10 19:11:49;;;;;;;2.67;2.17;;;9.80;99.90;10.00;100603.00;;;;5038036;28;20201;-69
2023/01/10 19:14:15;;;;;;;0.80;0.80;;;9.70;99.90;10.40;100625.00;;;;5028769;28;20217;-69
2023/01/10 19:16:43;;;;;;;0.93;0.93;;;9.80;99.90;10.40;100572.00;;;;5036257;28;20580;-69
2023/01/10 19:19:13;;;;;;;1.63;1.53;;;9.80;99.90;10.10;100613.00;;;;5036554;28;20178;-69
2023/01/10 19:21:49;;;;;;;2.17;1.97;;;9.80;99.90;10.20;100605.00;;;;5019173;28;20208;-69
2023/01/10 19:24:36;;;;;;;4.83;1.60;;;9.90;99.90;10.30;100623.00;;;;5065526;28;20189;-69
2023/01/10 19:27:03;;;;;;;3.70;3.33;;;9.90;99.90;10.20;100605.00;;;;5031192;28;20602;-69
2023/01/10 19:29:29;;;;;;;1.00;1.00;;;9.90;99.90;10.40;100554.00;;;;5018135;28;20205;-69
2023/01/10 19:31:56;;;;;;;1.37;1.27;;;10.00;99.90;10.30;100556.00;;;;5034073;28;20574;-69
2023/01/10 19:34:40;;;;;;;2.67;2.43;;;9.90;99.90;10.40;100592.00;;;;5022887;28;20187;-69
2023/01/10 19:37:05;;;;;;;2.20;2.10;;;10.00;99.90;10.40;100578.00;;;;5018998;28;20205;-69
2023/01/10 19:39:41;;;;;;;1.50;1.40;;;10.00;99.90;10.40;100581.00;;;;5015872;28;20191;-69
2023/01/10 19:42:07;;;;;;;1.53;1.43;;;10.00;99.90;10.40;100591.00;;;;5035828;28;20178;-69
2023/01/10 19:44:35;;;;;;;2.70;2.50;;;10.10;99.90;10.60;100580.00;;;;5035956;28;20191;-68
2023/01/10 19:47:22;;;;;;;1.03;1.03;;;10.20;99.90;10.60;100591.00;;;;5016977;28;20566;-69
2023/01/10 19:49:50;;;;;;;1.67;1.57;;;10.20;99.90;10.90;100574.00;;;;5026309;28;20190;-68
2023/01/10 19:52:18;;;;;;;1.47;1.37;;;10.20;99.90;10.70;100592.00;;;;5034658;28;20256;-68
2023/01/10 19:54:49;;;;;;;1.50;1.40;;;10.30;99.90;10.60;100577.00;;;;5034257;28;20194;-69
2023/01/10 19:57:24;;;;;;;1.03;1.03;;;10.30;99.90;10.80;100572.00;;;;5034075;28;20895;-69
2023/01/10 19:59:54;;;;;;;14.33;1.57;;;10.30;99.90;10.80;100578.00;;;;5034838;28;20649;-67
2023/01/10 20:03:00;;;;;;;4.47;2.13;;;10.30;99.90;10.70;100578.00;;;;5022931;28;20282;-67
2023/01/10 20:05:49;;;;;;;1.17;1.17;;;10.20;99.90;10.60;100575.00;;;;5008077;28;20197;-67
2023/01/10 20:09:05;;;;;;;1.20;1.10;;;10.20;99.90;10.50;100562.00;;;;5034140;28;20186;-67
2023/01/10 20:11:51;;;;;;;1.03;1.03;;;10.20;99.90;10.60;100577.00;;;;5032786;28;20225;-67
2023/01/10 20:14:50;;;;;;;0.80;0.80;;;10.20;99.90;10.80;100582.00;;;;5034050;28;20223;-68
2023/01/10 20:17:22;;;;;;;1.93;1.10;;;10.20;99.90;10.60;100577.00;;;;5013855;28;20184;-68
2023/01/10 20:19:51;;;;;;;2.00;1.67;;;10.20;99.90;10.90;100521.00;;;;5031184;28;20188;-67